Time;durP1;ratioP1;P1;durP2;ratioP2;P2;SDS_P1;SDS_P2;PMS_P1;PMS_P2;Temp;Humidity;BMP_temperature;BMP_pressure;BME280_temperature;BME280_humidity;BME280_pressure;Samples;Min_cycle;Max_cycle;Signal;HPM_P1;HPM_P2
2022/11/04 00:01:33;;;;;;;26.55;23.58;;;11.50;99.90;;;;;;5057002;28;20149;-71
2022/11/04 00:04:00;;;;;;;32.47;23.50;;;11.60;99.90;;;;;;5039939;28;20057;-72
2022/11/04 00:06:25;;;;;;;25.30;22.63;;;11.50;99.90;;;;;;5057379;28;20103;-71
2022/11/04 00:08:53;;;;;;;27.88;23.45;;;11.40;99.90;;;;;;5039978;28;20385;-72
2022/11/04 00:14:05;;;;;;;25.45;22.90;;;11.40;99.90;;;;;;5056936;28;20049;-72
2022/11/04 00:19:15;;;;;;;25.67;23.08;;;11.50;99.90;;;;;;5056721;28;20374;-71
2022/11/04 00:29:58;;;;;;;23.92;19.35;;;11.40;99.90;;;;;;5056486;28;20063;-72
2022/11/04 00:35:10;;;;;;;22.83;20.35;;;11.50;99.90;;;;;;5056685;28;20049;-72
2022/11/04 00:37:40;;;;;;;22.95;17.60;;;11.40;99.90;;;;;;5057366;28;20041;-72
2022/11/04 00:40:08;;;;;;;19.67;17.67;;;11.40;99.90;;;;;;5056333;28;20080;-73
2022/11/04 00:42:35;;;;;;;17.55;15.65;;;11.40;99.90;;;;;;5039074;28;20067;-72
2022/11/04 00:45:01;;;;;;;13.52;12.15;;;11.40;99.90;;;;;;5056455;28;20138;-72
2022/11/04 00:47:27;;;;;;;12.48;11.18;;;11.40;99.90;;;;;;5056678;28;20068;-72
2022/11/04 00:49:52;;;;;;;14.32;10.05;;;11.30;99.90;;;;;;5056676;28;20079;-72
2022/11/04 00:52:18;;;;;;;12.35;10.00;;;11.30;99.90;;;;;;5056316;28;20072;-72
2022/11/04 00:54:44;;;;;;;8.43;7.22;;;11.30;99.90;;;;;;5056218;28;20106;-72
2022/11/04 00:57:10;;;;;;;9.20;6.57;;;11.20;99.90;;;;;;5056174;28;20460;-71
2022/11/04 00:59:36;;;;;;;7.28;6.10;;;11.20;99.90;;;;;;5055896;28;20136;-72
2022/11/04 01:02:02;;;;;;;5.90;4.03;;;11.10;99.90;;;;;;5056260;28;20127;-73
2022/11/04 01:04:28;;;;;;;5.28;3.80;;;11.20;99.90;;;;;;5056275;28;20072;-73
2022/11/04 01:06:53;;;;;;;10.27;4.75;;;11.00;99.90;;;;;;5055965;28;20045;-71
2022/11/04 01:09:19;;;;;;;9.77;3.80;;;11.00;99.90;;;;;;5055621;28;20116;-72
2022/11/04 01:11:45;;;;;;;7.80;3.17;;;11.00;99.90;;;;;;5034975;28;20351;-72
2022/11/04 01:14:11;;;;;;;5.40;3.40;;;11.00;99.90;;;;;;5035850;28;20124;-72
2022/11/04 01:16:37;;;;;;;6.78;3.60;;;11.00;99.90;;;;;;5035957;28;20319;-70
2022/11/04 01:19:03;;;;;;;5.13;3.17;;;11.00;99.90;;;;;;5036083;28;20513;-71
2022/11/04 01:21:29;;;;;;;5.32;2.80;;;10.90;99.90;;;;;;5035287;28;20056;-72
2022/11/04 01:23:54;;;;;;;7.38;2.85;;;10.90;99.90;;;;;;5036270;28;20037;-71
2022/11/04 01:26:22;;;;;;;4.47;2.38;;;10.90;99.90;;;;;;5026925;28;20044;-72
2022/11/04 01:28:48;;;;;;;4.78;2.10;;;10.90;99.90;;;;;;5055074;28;20037;-71
2022/11/04 01:31:22;;;;;;;7.05;2.00;;;10.90;99.90;;;;;;5038069;28;20060;-72
2022/11/04 01:33:49;;;;;;;5.38;2.00;;;10.90;99.90;;;;;;5055610;28;20053;-72
2022/11/04 01:36:15;;;;;;;4.82;1.73;;;10.80;99.90;;;;;;5055653;28;20133;-72
2022/11/04 01:38:41;;;;;;;7.85;2.15;;;10.80;99.90;;;;;;5055228;28;20067;-71
2022/11/04 01:41:14;;;;;;;8.35;1.95;;;10.80;99.90;;;;;;5055455;28;20044;-72
2022/11/04 01:43:45;;;;;;;4.57;1.70;;;10.80;99.90;;;;;;5055575;28;20186;-72
2022/11/04 01:46:28;;;;;;;5.68;1.90;;;10.80;99.90;;;;;;5055064;28;20053;-71
2022/11/04 01:49:00;;;;;;;6.93;1.70;;;10.80;99.90;;;;;;5055690;28;20135;-72
2022/11/04 01:51:29;;;;;;;5.70;2.05;;;10.80;99.90;;;;;;5055556;28;20053;-72
2022/11/04 01:53:56;;;;;;;4.47;1.80;;;10.80;99.90;;;;;;5055224;28;20049;-72
2022/11/04 01:56:24;;;;;;;4.63;1.70;;;10.90;99.90;;;;;;5054822;28;20067;-72
2022/11/04 01:58:52;;;;;;;5.80;1.63;;;10.80;99.90;;;;;;5055447;28;20048;-71
2022/11/04 02:01:18;;;;;;;5.50;1.73;;;10.80;99.90;;;;;;5054710;28;20063;-72
2022/11/04 02:03:54;;;;;;;5.60;1.40;;;10.70;99.90;;;;;;5054878;28;20061;-71
2022/11/04 02:06:21;;;;;;;6.03;1.52;;;10.70;99.90;;;;;;5055140;28;20134;-72
2022/11/04 02:08:48;;;;;;;6.78;1.67;;;10.70;99.90;;;;;;5055181;28;20048;-72
2022/11/04 02:12:48;;;;;;;8.15;1.65;;;10.70;99.90;;;;;;5054834;28;20045;-73
2022/11/04 02:14:01;;;;;;;8.68;1.60;;;10.60;99.90;;;;;;5055519;28;20467;-72
2022/11/04 02:16:44;;;;;;;5.80;1.23;;;10.60;99.90;;;;;;5054824;28;20049;-71
2022/11/04 02:19:24;;;;;;;8.57;1.17;;;10.60;99.90;;;;;;5055096;28;20370;-71
2022/11/04 02:22:21;;;;;;;4.43;1.30;;;10.60;99.90;;;;;;5055222;28;20053;-72
2022/11/04 02:25:17;;;;;;;6.28;1.35;;;10.60;99.90;;;;;;5054550;28;20065;-73
2022/11/04 02:28:06;;;;;;;7.40;1.42;;;10.60;99.90;;;;;;5054943;28;20462;-73
2022/11/04 02:30:40;;;;;;;5.38;1.20;;;10.60;99.90;;;;;;5054319;28;20360;-72
2022/11/04 02:33:28;;;;;;;5.38;1.38;;;10.50;99.90;;;;;;5054762;28;20091;-72
2022/11/04 02:36:18;;;;;;;7.00;1.55;;;10.50;99.90;;;;;;5055491;28;20243;-71
2022/11/04 02:38:49;;;;;;;8.45;1.55;;;10.50;99.90;;;;;;5054898;28;20044;-71
2022/11/04 02:41:40;;;;;;;6.65;1.45;;;10.50;99.90;;;;;;5038748;28;20049;-73
2022/11/04 02:44:12;;;;;;;8.00;1.60;;;10.50;99.90;;;;;;5058454;28;20057;-73
2022/11/04 02:46:43;;;;;;;7.13;1.58;;;10.50;99.90;;;;;;5058745;28;20463;-73
2022/11/04 02:49:12;;;;;;;4.97;1.08;;;10.50;99.90;;;;;;5041016;28;20045;-71
2022/11/04 02:51:43;;;;;;;4.18;1.20;;;10.50;99.90;;;;;;5058469;28;20049;-72
2022/11/04 02:54:41;;;;;;;6.30;1.30;;;10.50;99.90;;;;;;5041127;28;20079;-71
2022/11/04 02:57:12;;;;;;;7.15;1.60;;;10.50;99.90;;;;;;5058598;28;20045;-73
2022/11/04 02:59:45;;;;;;;8.95;1.33;;;10.50;99.90;;;;;;5058046;28;20044;-72
2022/11/04 03:02:17;;;;;;;7.28;1.40;;;10.50;99.90;;;;;;5058444;28;20067;-72
2022/11/04 03:04:48;;;;;;;7.28;1.30;;;10.50;99.90;;;;;;5058208;28;20056;-72
2022/11/04 03:07:21;;;;;;;6.80;1.77;;;10.50;99.90;;;;;;5058048;28;20033;-72
2022/11/04 03:09:53;;;;;;;4.68;1.42;;;10.50;99.90;;;;;;5058479;28;20049;-72
2022/11/04 03:12:24;;;;;;;10.13;1.90;;;10.70;99.90;;;;;;5057821;28;20465;-72
2022/11/04 03:15:03;;;;;;;5.82;1.42;;;10.50;99.90;;;;;;5057801;28;20495;-72
2022/11/04 03:17:37;;;;;;;9.90;1.70;;;10.50;99.90;;;;;;5040538;28;20076;-72
2022/11/04 03:20:11;;;;;;;2.45;1.00;;;10.50;99.90;;;;;;5058132;28;20052;-72
2022/11/04 03:22:37;;;;;;;7.15;1.20;;;10.60;99.90;;;;;;5058035;28;20052;-72
2022/11/04 03:25:07;;;;;;;4.25;1.00;;;10.60;99.90;;;;;;5058735;28;20049;-71
2022/11/04 03:27:53;;;;;;;4.43;1.10;;;10.60;99.90;;;;;;5057914;28;20052;-72
2022/11/04 03:30:22;;;;;;;6.68;1.15;;;10.60;99.90;;;;;;5058429;28;20051;-71
2022/11/04 03:33:36;;;;;;;5.05;1.30;;;10.60;99.90;;;;;;5039881;28;20461;-72
2022/11/04 03:36:03;;;;;;;5.35;1.35;;;10.60;99.90;;;;;;4938690;29;20043;-71
2022/11/04 03:38:29;;;;;;;4.15;1.13;;;10.60;99.90;;;;;;5018446;28;20343;-72
2022/11/04 03:40:55;;;;;;;4.57;1.02;;;10.60;99.90;;;;;;5037780;28;20075;-71
2022/11/04 03:43:26;;;;;;;4.43;1.35;;;10.60;99.90;;;;;;5054222;28;20516;-71
2022/11/04 03:45:52;;;;;;;2.42;0.88;;;10.60;99.90;;;;;;5057414;28;20453;-71
2022/11/04 03:48:18;;;;;;;3.88;0.75;;;10.60;99.90;;;;;;5057615;28;20053;-72
2022/11/04 03:50:48;;;;;;;5.53;1.27;;;10.60;99.90;;;;;;5057413;28;20053;-71
2022/11/04 03:53:22;;;;;;;5.63;1.00;;;10.60;99.90;;;;;;5057410;28;20049;-72
2022/11/04 03:56:01;;;;;;;4.97;1.08;;;10.60;99.90;;;;;;5057379;28;20060;-72
2022/11/04 03:58:41;;;;;;;4.28;1.20;;;10.70;99.90;;;;;;5056974;28;20045;-72
2022/11/04 04:01:24;;;;;;;2.63;0.82;;;10.60;99.90;;;;;;5057282;28;20053;-72
2022/11/04 04:04:07;;;;;;;4.38;1.20;;;10.60;99.90;;;;;;5057317;28;20120;-72
2022/11/04 04:06:35;;;;;;;4.28;1.08;;;10.60;99.90;;;;;;5039843;28;20053;-72
2022/11/04 04:09:36;;;;;;;4.03;1.60;;;10.60;99.90;;;;;;5057167;28;20051;-72
2022/11/04 04:12:10;;;;;;;3.63;1.00;;;10.60;99.90;;;;;;5022130;28;20063;-72
2022/11/04 04:14:50;;;;;;;4.95;1.15;;;10.60;99.90;;;;;;5057410;28;20060;-70
2022/11/04 04:17:29;;;;;;;5.80;1.25;;;10.60;99.90;;;;;;5057310;28;20464;-73
2022/11/04 04:20:05;;;;;;;4.00;1.00;;;10.50;99.90;;;;;;5056885;28;20048;-71
2022/11/04 04:22:40;;;;;;;4.65;1.27;;;10.80;99.90;;;;;;5057116;28;20361;-71
2022/11/04 04:27:57;;;;;;;4.75;1.38;;;10.50;99.90;;;;;;5056562;28;20427;-72
2022/11/04 04:30:23;;;;;;;9.68;1.42;;;10.50;99.90;;;;;;5056889;28;20044;-72
2022/11/04 04:32:57;;;;;;;6.38;1.80;;;10.50;99.90;;;;;;5056810;28;20037;-71
2022/11/04 04:35:40;;;;;;;8.00;1.95;;;10.80;99.90;;;;;;5056715;28;20049;-72
2022/11/04 04:46:36;;;;;;;5.22;1.42;;;10.50;99.90;;;;;;5056655;28;20378;-72
2022/11/04 04:49:07;;;;;;;4.47;1.33;;;10.50;99.90;;;;;;5058044;28;20045;-70
2022/11/04 04:51:36;;;;;;;5.55;1.30;;;10.50;99.90;;;;;;5033893;28;20041;-70
2022/11/04 04:54:02;;;;;;;7.03;1.63;;;10.40;99.90;;;;;;5052039;28;20037;-71
2022/11/04 04:56:27;;;;;;;3.55;1.08;;;10.40;99.90;;;;;;5037213;28;20118;-73
2022/11/04 04:58:53;;;;;;;3.92;1.10;;;10.40;99.90;;;;;;5041936;28;20048;-72
2022/11/04 05:01:19;;;;;;;4.47;1.35;;;10.40;99.90;;;;;;5038506;28;20061;-73
2022/11/04 05:03:44;;;;;;;5.10;1.25;;;10.30;99.90;;;;;;5055411;28;20056;-71
2022/11/04 05:06:10;;;;;;;6.68;1.70;;;10.30;99.90;;;;;;5056356;28;20083;-71
2022/11/04 05:08:35;;;;;;;5.40;1.13;;;10.30;99.90;;;;;;5038538;28;20445;-72
2022/11/04 05:11:01;;;;;;;6.50;1.30;;;10.30;99.90;;;;;;5050190;28;20069;-71
2022/11/04 05:13:28;;;;;;;4.80;1.17;;;10.20;99.90;;;;;;5019004;28;20045;-72
2022/11/04 05:15:55;;;;;;;6.97;1.10;;;10.20;99.90;;;;;;5035898;28;20146;-72
2022/11/04 05:18:21;;;;;;;7.00;1.05;;;10.20;99.90;;;;;;5035803;28;20084;-73
2022/11/04 05:20:47;;;;;;;3.90;0.90;;;10.20;99.90;;;;;;5036132;28;20076;-72
2022/11/04 05:23:13;;;;;;;4.57;1.10;;;10.10;99.90;;;;;;5035721;28;20049;-71
2022/11/04 05:25:40;;;;;;;4.22;1.10;;;10.10;99.90;;;;;;5041173;28;20041;-72
2022/11/04 05:28:06;;;;;;;4.50;1.00;;;10.00;99.90;;;;;;5055285;28;20041;-72
2022/11/04 05:30:32;;;;;;;4.55;1.00;;;10.00;99.90;;;;;;5055447;28;20052;-72
2022/11/04 05:32:57;;;;;;;6.90;1.45;;;9.90;99.90;;;;;;5037860;28;20131;-72
2022/11/04 05:35:23;;;;;;;3.35;1.00;;;9.90;99.90;;;;;;5020659;28;20056;-72
2022/11/04 05:37:49;;;;;;;3.97;1.10;;;9.80;99.90;;;;;;5055723;28;20445;-71
2022/11/04 05:40:14;;;;;;;3.33;0.90;;;9.70;99.90;;;;;;5055396;28;20064;-72
2022/11/04 05:42:40;;;;;;;8.60;1.27;;;9.70;99.90;;;;;;5054728;28;20357;-72
2022/11/04 05:45:06;;;;;;;5.53;1.00;;;9.70;99.90;;;;;;5055948;28;20045;-73
2022/11/04 05:47:32;;;;;;;5.32;1.17;;;9.60;99.90;;;;;;5055497;28;20053;-71
2022/11/04 05:49:57;;;;;;;6.90;1.40;;;9.60;99.90;;;;;;5055678;28;20067;-72
2022/11/04 05:52:23;;;;;;;8.57;1.40;;;9.60;99.90;;;;;;5055219;28;20041;-71
2022/11/04 05:54:48;;;;;;;5.68;1.27;;;9.50;99.90;;;;;;5055149;28;20051;-71
2022/11/04 05:57:14;;;;;;;4.68;1.10;;;9.50;99.90;;;;;;5054774;28;20056;-71
2022/11/04 05:59:39;;;;;;;4.85;1.33;;;9.50;99.90;;;;;;5037371;28;20045;-71
2022/11/04 06:02:06;;;;;;;3.78;1.38;;;9.50;99.90;;;;;;5055119;28;20052;-71
2022/11/04 06:04:32;;;;;;;4.05;1.10;;;9.40;99.90;;;;;;5055095;28;20049;-72
2022/11/04 06:06:57;;;;;;;5.60;1.30;;;9.40;99.90;;;;;;5055229;28;20052;-71
2022/11/04 06:09:38;;;;;;;5.15;1.33;;;9.40;99.90;;;;;;5056642;28;20124;-73
2022/11/04 06:12:14;;;;;;;4.60;1.10;;;9.40;99.90;;;;;;5055113;28;20369;-71
2022/11/04 06:14:41;;;;;;;6.22;1.27;;;9.30;99.90;;;;;;5055331;28;20136;-71
2022/11/04 06:17:15;;;;;;;3.58;1.30;;;9.30;99.90;;;;;;5021358;28;20057;-72
2022/11/04 06:19:41;;;;;;;4.03;1.38;;;9.20;99.90;;;;;;5055102;28;20055;-72
2022/11/04 06:22:11;;;;;;;4.13;1.30;;;9.20;99.90;;;;;;5054939;28;20037;-71
2022/11/04 06:24:36;;;;;;;4.47;1.38;;;9.20;99.90;;;;;;5037272;28;20457;-71
2022/11/04 06:27:02;;;;;;;6.57;1.60;;;9.20;99.90;;;;;;5054523;28;20041;-71
2022/11/04 06:29:28;;;;;;;7.38;1.95;;;9.10;99.90;;;;;;5054572;28;20476;-73
2022/11/04 06:31:54;;;;;;;9.68;1.60;;;9.00;99.90;;;;;;5055182;28;20060;-72
2022/11/04 06:34:19;;;;;;;6.22;1.85;;;9.00;99.90;;;;;;5054690;28;20045;-72
2022/11/04 06:36:45;;;;;;;4.50;1.63;;;9.00;99.90;;;;;;5054655;28;20049;-72
2022/11/04 06:39:11;;;;;;;7.88;1.73;;;9.00;99.90;;;;;;5055388;28;20049;-72
2022/11/04 06:41:37;;;;;;;3.83;1.58;;;9.00;99.90;;;;;;5055096;28;20102;-71
2022/11/04 06:44:02;;;;;;;4.28;1.45;;;9.00;99.90;;;;;;5054489;28;20053;-71
2022/11/04 06:46:41;;;;;;;6.88;1.70;;;9.00;99.90;;;;;;5037595;28;20056;-72
2022/11/04 06:49:13;;;;;;;8.90;1.85;;;9.00;99.90;;;;;;5054576;28;20450;-72
2022/11/04 06:51:38;;;;;;;4.63;1.52;;;9.00;99.90;;;;;;5054431;28;20033;-71
2022/11/04 06:54:04;;;;;;;4.60;1.70;;;9.00;99.90;;;;;;5055027;28;20070;-71
2022/11/04 06:56:30;;;;;;;5.70;1.70;;;8.90;99.90;;;;;;5054287;28;20063;-71
2022/11/04 06:58:56;;;;;;;7.35;1.80;;;8.90;99.90;;;;;;5050854;28;20041;-71
2022/11/04 07:01:25;;;;;;;3.80;1.55;;;8.90;99.90;;;;;;5045471;28;20068;-73
2022/11/04 07:03:52;;;;;;;3.78;1.60;;;8.90;99.90;;;;;;5051534;28;20052;-73
2022/11/04 07:06:18;;;;;;;7.28;1.63;;;8.90;99.90;;;;;;5054604;28;20059;-72
2022/11/04 07:08:44;;;;;;;4.53;1.42;;;9.00;99.90;;;;;;5053649;28;20128;-71
2022/11/04 07:11:10;;;;;;;6.97;1.60;;;8.90;99.90;;;;;;5034678;28;20088;-70
2022/11/04 07:13:35;;;;;;;5.88;1.42;;;8.90;99.90;;;;;;5034470;28;20045;-71
2022/11/04 07:16:04;;;;;;;2.85;1.20;;;8.90;99.90;;;;;;5053220;28;20427;-72
2022/11/04 07:18:30;;;;;;;6.13;1.55;;;8.90;99.90;;;;;;5054229;28;20053;-72
2022/11/04 07:20:57;;;;;;;3.90;1.30;;;8.80;99.90;;;;;;5054343;28;20110;-71
2022/11/04 07:23:22;;;;;;;3.53;1.42;;;8.80;99.90;;;;;;5036772;28;20052;-72
2022/11/04 07:25:48;;;;;;;8.65;1.65;;;8.80;99.90;;;;;;5054099;28;20045;-70
2022/11/04 07:28:14;;;;;;;8.38;1.23;;;8.90;99.90;;;;;;5057722;28;20140;-69
2022/11/04 07:30:39;;;;;;;6.65;1.30;;;8.80;99.90;;;;;;5040114;28;20045;-70
2022/11/04 07:33:05;;;;;;;4.53;1.48;;;8.90;99.90;;;;;;5058220;28;20056;-71
2022/11/04 07:35:31;;;;;;;5.45;1.58;;;8.80;99.90;;;;;;5057927;28;20055;-72
2022/11/04 07:37:56;;;;;;;5.82;1.40;;;8.80;99.90;;;;;;5057585;28;20076;-71
2022/11/04 07:40:22;;;;;;;5.88;1.60;;;8.80;99.90;;;;;;5057871;28;20072;-72
2022/11/04 07:42:47;;;;;;;9.07;1.80;;;8.80;99.90;;;;;;5057716;28;20041;-72
2022/11/04 07:45:13;;;;;;;4.68;1.77;;;8.80;99.90;;;;;;5057393;28;20045;-72
2022/11/04 07:47:39;;;;;;;7.65;1.65;;;8.80;99.90;;;;;;5057311;28;20077;-71
2022/11/04 07:50:05;;;;;;;3.97;1.60;;;8.80;99.90;;;;;;5057564;28;20045;-73
2022/11/04 07:52:30;;;;;;;5.97;1.50;;;8.80;99.90;;;;;;5057339;28;20044;-71
2022/11/04 07:54:56;;;;;;;5.15;1.77;;;8.80;99.90;;;;;;5057530;28;20037;-71
2022/11/04 07:57:21;;;;;;;8.43;1.85;;;8.80;99.90;;;;;;5039981;28;20356;-71
2022/11/04 07:59:47;;;;;;;7.60;1.85;;;8.80;99.90;;;;;;5057420;28;20061;-71
2022/11/04 08:02:12;;;;;;;5.47;1.58;;;8.90;99.90;;;;;;5057252;28;20041;-72
2022/11/04 08:04:38;;;;;;;7.30;1.50;;;8.90;99.90;;;;;;5021815;28;20131;-71
2022/11/04 08:07:08;;;;;;;6.32;1.88;;;8.90;99.90;;;;;;5057629;28;20051;-71
2022/11/04 08:09:35;;;;;;;6.78;2.03;;;8.90;99.90;;;;;;5057238;28;20036;-72
2022/11/04 08:12:01;;;;;;;8.57;1.95;;;9.20;99.90;;;;;;5039906;28;20057;-71
2022/11/04 08:14:27;;;;;;;5.38;1.80;;;9.00;99.90;;;;;;5039059;28;20041;-72
2022/11/04 08:16:52;;;;;;;6.95;2.08;;;9.00;99.90;;;;;;5056640;28;20119;-71
2022/11/04 08:19:18;;;;;;;5.70;1.77;;;9.00;99.90;;;;;;5057042;28;20441;-72
2022/11/04 08:21:43;;;;;;;3.97;1.58;;;9.00;99.90;;;;;;5056887;28;20048;-70
2022/11/04 08:24:09;;;;;;;6.93;2.08;;;9.00;99.90;;;;;;5057271;28;20037;-72
2022/11/04 08:26:35;;;;;;;6.28;1.88;;;9.00;99.90;;;;;;5039980;28;20503;-71
2022/11/04 08:29:01;;;;;;;6.15;1.90;;;9.10;99.90;;;;;;5056856;28;20469;-72
2022/11/04 08:31:29;;;;;;;4.65;1.95;;;9.10;99.90;;;;;;5056791;28;20064;-72
2022/11/04 08:33:55;;;;;;;4.88;1.80;;;9.10;99.90;;;;;;5056479;28;20076;-73
2022/11/04 08:36:24;;;;;;;6.38;2.10;;;9.10;99.90;;;;;;5056598;28;20060;-72
2022/11/04 08:38:50;;;;;;;7.25;2.25;;;9.20;99.90;;;;;;5055877;28;20053;-70
2022/11/04 08:41:21;;;;;;;5.30;2.08;;;9.20;99.90;;;;;;5038839;28;20125;-71
2022/11/04 08:43:47;;;;;;;7.05;1.90;;;9.20;99.90;;;;;;5056180;28;20049;-71
2022/11/04 08:46:13;;;;;;;6.32;2.42;;;9.20;99.90;;;;;;5056045;28;20134;-72
2022/11/04 08:48:40;;;;;;;8.48;2.65;;;9.20;99.90;;;;;;5056797;28;20045;-70
2022/11/04 08:51:12;;;;;;;8.32;2.53;;;9.30;99.90;;;;;;5056305;28;20442;-70
2022/11/04 08:53:38;;;;;;;5.45;2.97;;;9.30;99.90;;;;;;5056264;28;20049;-71
2022/11/04 08:56:21;;;;;;;5.18;2.22;;;9.50;99.90;;;;;;5039247;28;20347;-71
2022/11/04 08:58:47;;;;;;;6.55;2.65;;;9.40;99.90;;;;;;5039308;28;20060;-70
2022/11/04 09:01:14;;;;;;;5.50;2.50;;;9.40;99.90;;;;;;5038201;28;20057;-71
2022/11/04 09:03:40;;;;;;;6.35;2.45;;;9.40;99.90;;;;;;5056518;28;20465;-71
2022/11/04 09:06:08;;;;;;;9.20;2.25;;;9.40;99.90;;;;;;5038335;28;20526;-72
2022/11/04 09:08:33;;;;;;;6.45;2.30;;;9.40;99.90;;;;;;5055991;28;20369;-71
2022/11/04 09:11:00;;;;;;;4.57;2.00;;;9.50;99.90;;;;;;5038685;28;20053;-72
2022/11/04 09:13:26;;;;;;;6.07;2.20;;;9.50;99.90;;;;;;5055861;28;20055;-71
2022/11/04 09:15:52;;;;;;;4.57;2.13;;;9.50;99.90;;;;;;5037997;28;20044;-71
2022/11/04 09:18:18;;;;;;;6.15;2.00;;;9.50;99.90;;;;;;5055883;28;20048;-73
2022/11/04 09:20:43;;;;;;;9.00;2.10;;;9.60;99.90;;;;;;5055563;28;20123;-72
2022/11/04 09:23:09;;;;;;;5.25;1.73;;;9.60;99.90;;;;;;5056003;28;20416;-71
2022/11/04 09:25:35;;;;;;;8.00;1.90;;;9.60;99.90;;;;;;5038268;28;20040;-73
2022/11/04 09:28:01;;;;;;;4.40;1.65;;;9.70;99.90;;;;;;5056087;28;20373;-71
2022/11/04 09:30:27;;;;;;;4.72;1.30;;;9.80;99.90;;;;;;5055339;28;20059;-71
2022/11/04 09:32:53;;;;;;;6.18;1.50;;;9.80;99.90;;;;;;5055741;28;20053;-72
2022/11/04 09:35:19;;;;;;;4.03;1.50;;;9.80;99.90;;;;;;5037981;28;20041;-71
2022/11/04 09:37:45;;;;;;;4.82;1.65;;;9.80;99.90;;;;;;5038811;28;20430;-71
2022/11/04 09:40:16;;;;;;;7.63;1.60;;;9.80;99.90;;;;;;5037743;28;20072;-72
2022/11/04 09:42:58;;;;;;;8.05;2.15;;;9.90;99.90;;;;;;5055449;28;20053;-71
2022/11/04 09:45:27;;;;;;;6.57;1.90;;;9.90;99.90;;;;;;5055310;28;20055;-71
2022/11/04 09:48:02;;;;;;;6.32;1.95;;;10.00;99.90;;;;;;5055534;28;20059;-71
2022/11/04 09:50:49;;;;;;;7.05;2.10;;;10.00;99.90;;;;;;5055104;28;20467;-71
2022/11/04 09:53:20;;;;;;;8.93;2.25;;;10.00;99.90;;;;;;5037679;28;20072;-72
2022/11/04 09:55:54;;;;;;;6.75;1.77;;;10.10;99.90;;;;;;5055120;28;20056;-71
2022/11/04 09:58:20;;;;;;;6.85;1.90;;;10.10;99.90;;;;;;5055179;28;20080;-70
2022/11/04 10:01:05;;;;;;;7.57;1.73;;;10.10;99.90;;;;;;5054246;28;20119;-71
2022/11/04 10:03:52;;;;;;;7.57;1.95;;;10.10;99.90;;;;;;5055306;28;20143;-71
2022/11/04 10:06:55;;;;;;;8.68;1.92;;;10.20;99.90;;;;;;5054956;28;20036;-70
2022/11/04 10:09:29;;;;;;;8.23;1.73;;;10.30;99.90;;;;;;5037403;28;20460;-71
2022/11/04 10:12:33;;;;;;;7.05;2.00;;;10.40;99.90;;;;;;5054866;28;20156;-71
2022/11/04 10:15:07;;;;;;;4.23;1.70;;;10.50;99.90;;;;;;5053983;28;20052;-69
2022/11/04 10:17:56;;;;;;;6.05;2.22;;;10.50;99.90;;;;;;5054859;28;20320;-70
2022/11/04 10:20:47;;;;;;;6.90;2.05;;;10.60;99.90;;;;;;5055092;28;20057;-70
2022/11/04 10:23:21;;;;;;;5.40;1.88;;;10.60;99.90;;;;;;5054881;28;20052;-70
2022/11/04 10:26:04;;;;;;;6.18;2.00;;;10.70;99.90;;;;;;5055048;28;20080;-71
2022/11/04 10:28:37;;;;;;;7.57;1.90;;;10.70;99.90;;;;;;5054723;28;20087;-72
2022/11/04 10:31:04;;;;;;;13.23;2.00;;;10.70;99.90;;;;;;5054581;28;20416;-70
2022/11/04 10:33:38;;;;;;;5.13;1.80;;;10.70;99.90;;;;;;5054612;28;20059;-72
2022/11/04 10:36:08;;;;;;;9.52;2.05;;;10.70;99.90;;;;;;5037466;28;20052;-73
2022/11/04 10:38:42;;;;;;;8.55;1.90;;;10.70;99.90;;;;;;5054515;28;20045;-71
2022/11/04 10:41:22;;;;;;;6.40;1.80;;;10.70;99.90;;;;;;5037067;28;20063;-72
2022/11/04 10:44:12;;;;;;;6.13;1.77;;;10.80;99.90;;;;;;5054272;28;20339;-72
2022/11/04 10:46:49;;;;;;;8.43;1.50;;;10.80;99.90;;;;;;5054344;28;20048;-71
2022/11/04 10:49:39;;;;;;;7.53;1.80;;;11.20;99.90;;;;;;5054401;28;20045;-70
2022/11/04 10:52:07;;;;;;;10.98;2.00;;;11.10;99.90;;;;;;5054677;28;20045;-72
2022/11/04 10:54:42;;;;;;;5.65;2.00;;;11.30;99.90;;;;;;5054460;28;20084;-71
2022/11/04 10:57:10;;;;;;;6.43;1.60;;;11.40;99.90;;;;;;5036937;28;20081;-72
2022/11/04 10:59:51;;;;;;;9.68;1.90;;;11.50;99.90;;;;;;5054055;28;20052;-72
2022/11/04 11:02:17;;;;;;;9.02;2.53;;;11.60;99.90;;;;;;5056376;28;20115;-71
2022/11/04 11:04:46;;;;;;;5.82;1.83;;;11.80;99.90;;;;;;5040709;28;20445;-72
2022/11/04 11:07:21;;;;;;;8.05;2.00;;;11.80;99.90;;;;;;5058679;28;20037;-73
2022/11/04 11:09:47;;;;;;;6.82;1.80;;;11.90;99.90;;;;;;5058472;28;20041;-72
2022/11/04 11:12:12;;;;;;;6.20;1.90;;;11.90;99.90;;;;;;5058186;28;20045;-72
2022/11/04 11:14:39;;;;;;;8.10;1.92;;;12.00;99.90;;;;;;5058036;28;20081;-72
2022/11/04 11:17:17;;;;;;;7.55;1.95;;;12.00;99.90;;;;;;5057996;28;20094;-72
2022/11/04 11:19:58;;;;;;;5.90;1.95;;;12.00;99.90;;;;;;5040534;28;20122;-72
2022/11/04 11:22:34;;;;;;;6.63;1.85;;;12.00;99.90;;;;;;5058045;28;20056;-72
2022/11/04 11:25:20;;;;;;;7.38;1.80;;;12.10;99.90;;;;;;5057731;28;20454;-71
2022/11/04 11:28:06;;;;;;;9.80;2.03;;;12.20;99.90;;;;;;5040230;28;20055;-72
2022/11/04 11:30:56;;;;;;;5.93;1.80;;;12.30;99.90;;;;;;5058006;28;20041;-71
2022/11/04 11:33:26;;;;;;;5.93;2.00;;;12.40;99.90;;;;;;5045502;28;20053;-71
2022/11/04 11:36:15;;;;;;;7.95;2.20;;;12.60;99.90;;;;;;5057871;28;20036;-71
2022/11/04 11:39:04;;;;;;;4.75;2.03;;;12.80;99.90;;;;;;5042821;28;20064;-71
2022/11/04 11:41:47;;;;;;;6.70;2.20;;;12.90;99.90;;;;;;5057821;28;20349;-72
2022/11/04 11:44:43;;;;;;;6.28;1.77;;;13.10;99.90;;;;;;5057459;28;20055;-72
2022/11/04 11:47:28;;;;;;;6.38;1.90;;;13.10;99.90;;;;;;5040414;28;20064;-73
2022/11/04 11:50:23;;;;;;;9.48;2.20;;;13.00;99.90;;;;;;5040177;28;20053;-73
2022/11/04 11:52:51;;;;;;;6.43;1.85;;;13.00;99.90;;;;;;5039835;28;20092;-72
2022/11/04 11:55:35;;;;;;;12.95;2.33;;;13.00;99.90;;;;;;5057669;28;20438;-72
2022/11/04 11:58:20;;;;;;;;;;;13.10;99.90;;;;;;5057498;28;20457;-72
2022/11/04 12:01:14;;;;;;;9.27;1.92;;;13.10;99.90;;;;;;5057043;28;19921;-71
2022/11/04 12:03:45;;;;;;;7.90;2.08;;;13.10;99.90;;;;;;5026393;28;20130;-72
2022/11/04 12:06:26;;;;;;;7.97;1.90;;;13.10;99.90;;;;;;5057163;28;20055;-72
2022/11/04 12:09:03;;;;;;;6.68;1.65;;;13.10;99.90;;;;;;5056921;28;20055;-73
2022/11/04 12:11:54;;;;;;;9.10;1.70;;;13.00;99.90;;;;;;5039652;28;20458;-71
2022/11/04 12:14:40;;;;;;;6.45;1.30;;;12.80;99.90;;;;;;5056750;28;20422;-72
2022/11/04 12:17:11;;;;;;;5.78;1.40;;;12.70;99.90;;;;;;5056846;28;20130;-70
2022/11/04 12:19:54;;;;;;;4.05;1.15;;;12.60;99.90;;;;;;5039779;28;20060;-71
2022/11/04 12:22:55;;;;;;;3.87;1.30;;;12.60;99.90;;;;;;5057191;28;20045;-73
2022/11/04 12:25:50;;;;;;;5.57;1.40;;;12.50;99.90;;;;;;5057155;28;20088;-73
2022/11/04 12:28:39;;;;;;;5.07;1.20;;;12.40;99.90;;;;;;5040266;28;20057;-73
2022/11/04 12:31:41;;;;;;;5.13;1.48;;;12.40;99.90;;;;;;5056711;28;20041;-71
2022/11/04 12:34:29;;;;;;;5.35;1.30;;;12.40;99.90;;;;;;5056778;28;20037;-73
2022/11/04 12:37:17;;;;;;;4.85;1.40;;;12.30;99.90;;;;;;5057477;28;20045;-71
2022/11/04 12:39:49;;;;;;;6.00;1.33;;;12.30;99.90;;;;;;5055526;28;20377;-71
2022/11/04 12:42:26;;;;;;;5.25;1.42;;;12.20;99.90;;;;;;5056868;28;20174;-73
2022/11/04 12:45:27;;;;;;;4.22;1.23;;;12.20;99.90;;;;;;5056633;28;20053;-71
2022/11/04 12:48:00;;;;;;;4.78;1.10;;;12.20;99.90;;;;;;4937081;29;20167;-73
2022/11/04 12:50:41;;;;;;;;;;;12.30;99.90;;;;;;5022163;28;20053;-71
2022/11/04 12:53:42;;;;;;;5.60;1.30;;;12.30;99.90;;;;;;5036521;28;19921;-71
2022/11/04 12:56:13;;;;;;;5.72;1.17;;;12.50;99.90;;;;;;4993765;28;20059;-73
2022/11/04 12:59:00;;;;;;;4.75;1.25;;;12.60;99.90;;;;;;5036110;28;20049;-71
2022/11/04 13:01:32;;;;;;;3.28;1.05;;;12.70;99.90;;;;;;5048973;28;20057;-71
2022/11/04 13:04:03;;;;;;;3.95;1.50;;;12.60;99.90;;;;;;5056306;28;20434;-72
2022/11/04 13:06:37;;;;;;;4.00;0.98;;;12.60;99.90;;;;;;5056575;28;20432;-71
2022/11/04 13:09:37;;;;;;;4.90;1.30;;;12.50;99.90;;;;;;5055876;28;20053;-72
2022/11/04 13:12:31;;;;;;;4.88;1.70;;;12.40;99.90;;;;;;5038123;28;20061;-72
2022/11/04 13:15:23;;;;;;;4.95;1.45;;;12.30;99.90;;;;;;5052856;28;20052;-72
2022/11/04 13:17:53;;;;;;;4.63;1.55;;;12.10;99.90;;;;;;5054651;28;20075;-72
2022/11/04 13:20:28;;;;;;;5.60;1.60;;;12.00;99.90;;;;;;5055178;28;20041;-73
2022/11/04 13:23:00;;;;;;;4.80;1.33;;;11.90;99.90;;;;;;5038426;28;20059;-71
2022/11/04 13:25:40;;;;;;;4.22;1.10;;;11.80;99.90;;;;;;5037946;28;20055;-72
2022/11/04 13:28:12;;;;;;;2.78;1.08;;;11.70;99.90;;;;;;5038447;28;20049;-72
2022/11/04 13:31:14;;;;;;;3.65;1.20;;;11.60;99.90;;;;;;5055557;28;20041;-72
2022/11/04 13:33:54;;;;;;;6.53;1.42;;;11.60;99.90;;;;;;5055682;28;20120;-72
2022/11/04 13:36:45;;;;;;;4.72;1.30;;;11.50;99.90;;;;;;5022377;28;20044;-71
2022/11/04 13:39:33;;;;;;;5.43;1.35;;;11.50;99.90;;;;;;5038343;28;20048;-72
2022/11/04 13:42:18;;;;;;;5.38;1.50;;;11.50;99.90;;;;;;5055503;28;20045;-73
2022/11/04 13:44:47;;;;;;;5.75;1.60;;;11.50;99.90;;;;;;5040686;28;20053;-71
2022/11/04 13:47:20;;;;;;;4.65;1.10;;;11.60;99.90;;;;;;5055582;28;20098;-71